Huvudsida
METAR-TAF:

METAR-TAF

Flygplatser :

Tarvisio, Italien

latitud: 46-30N, longitud: 013-35E, höjd: 777 m

Aktuellt väderrapport

Denna rapport gjordes för 10 timmar och 25 minuter sedan, klockan 17:55 UTC
Vind 2 kt från nord/nordost
Temperatur 21°C
Fuktighet 56%
Tryck 1015 hPa
Sikt 10 km eller mer
Brutna moln på en höjd av 3000 ft

METAR: LIVO 181755Z 02002KT 9999 BKN030 21/12 Q1015 RMK BKN VIS MIN 9999

Tid: 06:20 (04:20 UTC)


TAF: saknas

Aktuella väderrapporter och prognoser från 4000 flygplatser (METAR- och TAF-rapporter).

De tillgängliga stationerna syns som gula och röda prickar på kartan.

För musen över prickarna för att se namnen på stationerna.

Klicka sedan för att få väderrapporter och prognoser.

För att ändra kartan: Klicka på de gröna knapparna med ett svart kors på för att zooma in; den gröna knappen med ett streck på för att zooma ut; eller på de gröna pilarna för angränsande kartor.


METAR-TAF: